sensor_id;sensor_type;location;lat;lon;timestamp;pressure;altitude;pressure_sealevel;temperature
63158;BMP280;49381;49.338;8.794;2022-08-01T00:01:57;100184.19;;;23.15
63158;BMP280;49381;49.338;8.794;2022-08-01T00:03:57;100186.09;;;23.12
63158;BMP280;49381;49.338;8.794;2022-08-01T00:05:59;100195.16;;;23.20
63158;BMP280;49381;49.338;8.794;2022-08-01T00:07:59;100192.56;;;23.20
63158;BMP280;49381;49.338;8.794;2022-08-01T00:09:59;100192.78;;;23.16
63158;BMP280;49381;49.338;8.794;2022-08-01T00:12:00;100189.09;;;23.21
63158;BMP280;49381;49.338;8.794;2022-08-01T00:14:00;100191.75;;;23.19
63158;BMP280;49381;49.338;8.794;2022-08-01T00:16:01;100192.66;;;23.18
63158;BMP280;49381;49.338;8.794;2022-08-01T00:18:01;100189.53;;;23.12
63158;BMP280;49381;49.338;8.794;2022-08-01T00:20:03;100197.28;;;23.12
63158;BMP280;49381;49.338;8.794;2022-08-01T00:22:05;100195.44;;;23.14
63158;BMP280;49381;49.338;8.794;2022-08-01T00:24:06;100192.31;;;23.08
63158;BMP280;49381;49.338;8.794;2022-08-01T00:26:06;100186.94;;;23.12
63158;BMP280;49381;49.338;8.794;2022-08-01T00:28:06;100195.13;;;23.03
63158;BMP280;49381;49.338;8.794;2022-08-01T00:30:07;100187.78;;;23.13
63158;BMP280;49381;49.338;8.794;2022-08-01T00:32:08;100194.06;;;23.07
63158;BMP280;49381;49.338;8.794;2022-08-01T00:34:08;100197.63;;;23.05
63158;BMP280;49381;49.338;8.794;2022-08-01T00:36:08;100193.44;;;23.02
63158;BMP280;49381;49.338;8.794;2022-08-01T00:38:10;100199.78;;;22.95
63158;BMP280;49381;49.338;8.794;2022-08-01T00:40:10;100190.50;;;22.92
63158;BMP280;49381;49.338;8.794;2022-08-01T00:42:12;100195.69;;;22.92
63158;BMP280;49381;49.338;8.794;2022-08-01T00:44:12;100203.13;;;22.79
63158;BMP280;49381;49.338;8.794;2022-08-01T00:46:12;100193.16;;;22.70
63158;BMP280;49381;49.338;8.794;2022-08-01T00:48:13;100203.19;;;22.58
63158;BMP280;49381;49.338;8.794;2022-08-01T00:50:13;100197.97;;;22.60
63158;BMP280;49381;49.338;8.794;2022-08-01T00:52:13;100202.09;;;22.64
63158;BMP280;49381;49.338;8.794;2022-08-01T00:54:15;100204.22;;;22.54
63158;BMP280;49381;49.338;8.794;2022-08-01T00:56:16;100203.66;;;22.48
63158;BMP280;49381;49.338;8.794;2022-08-01T00:58:17;100203.78;;;22.45
63158;BMP280;49381;49.338;8.794;2022-08-01T01:00:17;100205.09;;;22.35
63158;BMP280;49381;49.338;8.794;2022-08-01T01:02:18;100208.00;;;22.28
63158;BMP280;49381;49.338;8.794;2022-08-01T01:04:18;100206.13;;;22.31
63158;BMP280;49381;49.338;8.794;2022-08-01T01:06:25;100204.44;;;22.30
63158;BMP280;49381;49.338;8.794;2022-08-01T01:08:31;100207.16;;;22.27
63158;BMP280;49381;49.338;8.794;2022-08-01T01:10:39;100204.81;;;22.21
63158;BMP280;49381;49.338;8.794;2022-08-01T01:12:43;100209.22;;;22.19
63158;BMP280;49381;49.338;8.794;2022-08-01T01:15:01;100213.34;;;22.23
63158;BMP280;49381;49.338;8.794;2022-08-01T01:17:06;100217.72;;;22.21
63158;BMP280;49381;49.338;8.794;2022-08-01T01:19:12;100217.19;;;21.94
63158;BMP280;49381;49.338;8.794;2022-08-01T01:21:29;100223.72;;;21.81
63158;BMP280;49381;49.338;8.794;2022-08-01T01:23:41;100220.41;;;21.99
63158;BMP280;49381;49.338;8.794;2022-08-01T01:26:14;100222.41;;;21.92
63158;BMP280;49381;49.338;8.794;2022-08-01T01:28:33;100229.53;;;21.86
63158;BMP280;49381;49.338;8.794;2022-08-01T01:30:36;100228.19;;;21.78
63158;BMP280;49381;49.338;8.794;2022-08-01T01:32:39;100227.63;;;21.70
63158;BMP280;49381;49.338;8.794;2022-08-01T01:34:44;100221.34;;;21.56
63158;BMP280;49381;49.338;8.794;2022-08-01T01:36:47;100234.72;;;21.44
63158;BMP280;49381;49.338;8.794;2022-08-01T01:38:49;100229.81;;;21.38
63158;BMP280;49381;49.338;8.794;2022-08-01T01:40:52;100230.75;;;21.36
63158;BMP280;49381;49.338;8.794;2022-08-01T01:42:54;100230.63;;;21.39
63158;BMP280;49381;49.338;8.794;2022-08-01T01:44:55;100234.13;;;21.38
63158;BMP280;49381;49.338;8.794;2022-08-01T01:46:59;100246.94;;;21.39
63158;BMP280;49381;49.338;8.794;2022-08-01T01:49:01;100235.84;;;21.37
63158;BMP280;49381;49.338;8.794;2022-08-01T01:51:03;100237.38;;;21.42
63158;BMP280;49381;49.338;8.794;2022-08-01T01:53:04;100239.97;;;21.41
63158;BMP280;49381;49.338;8.794;2022-08-01T01:55:07;100247.78;;;21.40
63158;BMP280;49381;49.338;8.794;2022-08-01T01:57:08;100247.84;;;21.38
63158;BMP280;49381;49.338;8.794;2022-08-01T01:59:10;100244.59;;;21.33
63158;BMP280;49381;49.338;8.794;2022-08-01T02:01:10;100242.34;;;21.24
63158;BMP280;49381;49.338;8.794;2022-08-01T02:03:14;100242.44;;;21.21
63158;BMP280;49381;49.338;8.794;2022-08-01T02:05:15;100247.59;;;21.21
63158;BMP280;49381;49.338;8.794;2022-08-01T02:07:19;100242.00;;;21.11
63158;BMP280;49381;49.338;8.794;2022-08-01T02:09:21;100239.97;;;20.96
63158;BMP280;49381;49.338;8.794;2022-08-01T02:11:23;100247.63;;;20.99
63158;BMP280;49381;49.338;8.794;2022-08-01T02:13:23;100253.44;;;21.04
63158;BMP280;49381;49.338;8.794;2022-08-01T02:15:24;100251.47;;;21.10
63158;BMP280;49381;49.338;8.794;2022-08-01T02:17:26;100245.25;;;21.15
63158;BMP280;49381;49.338;8.794;2022-08-01T02:19:29;100250.47;;;21.14
63158;BMP280;49381;49.338;8.794;2022-08-01T02:21:32;100252.75;;;21.21
63158;BMP280;49381;49.338;8.794;2022-08-01T02:23:34;100248.56;;;21.19
63158;BMP280;49381;49.338;8.794;2022-08-01T02:25:38;100249.41;;;21.19
63158;BMP280;49381;49.338;8.794;2022-08-01T02:27:42;100253.59;;;21.22
63158;BMP280;49381;49.338;8.794;2022-08-01T02:29:47;100250.88;;;21.26
63158;BMP280;49381;49.338;8.794;2022-08-01T02:31:51;100252.75;;;21.21
63158;BMP280;49381;49.338;8.794;2022-08-01T02:33:58;100257.78;;;21.24
63158;BMP280;49381;49.338;8.794;2022-08-01T02:36:01;100255.31;;;21.21
63158;BMP280;49381;49.338;8.794;2022-08-01T02:38:04;100254.56;;;21.19
63158;BMP280;49381;49.338;8.794;2022-08-01T02:40:07;100260.44;;;21.23
63158;BMP280;49381;49.338;8.794;2022-08-01T02:42:08;100256.38;;;21.16
63158;BMP280;49381;49.338;8.794;2022-08-01T02:44:16;100254.41;;;21.22
63158;BMP280;49381;49.338;8.794;2022-08-01T02:46:23;100257.00;;;21.22
63158;BMP280;49381;49.338;8.794;2022-08-01T02:48:25;100261.28;;;21.23
63158;BMP280;49381;49.338;8.794;2022-08-01T02:50:26;100256.13;;;21.23
63158;BMP280;49381;49.338;8.794;2022-08-01T02:52:30;100253.59;;;21.22
63158;BMP280;49381;49.338;8.794;2022-08-01T02:54:32;100252.03;;;21.18
63158;BMP280;49381;49.338;8.794;2022-08-01T02:56:34;100259.03;;;21.15
63158;BMP280;49381;49.338;8.794;2022-08-01T02:58:36;100256.31;;;21.17
63158;BMP280;49381;49.338;8.794;2022-08-01T03:00:36;100261.69;;;21.13
63158;BMP280;49381;49.338;8.794;2022-08-01T03:02:38;100260.03;;;21.11
63158;BMP280;49381;49.338;8.794;2022-08-01T03:04:41;100256.63;;;21.10
63158;BMP280;49381;49.338;8.794;2022-08-01T03:06:42;100254.16;;;21.07
63158;BMP280;49381;49.338;8.794;2022-08-01T03:08:44;100255.19;;;21.03
63158;BMP280;49381;49.338;8.794;2022-08-01T03:10:47;100256.91;;;21.03
63158;BMP280;49381;49.338;8.794;2022-08-01T03:12:49;100250.19;;;20.99
63158;BMP280;49381;49.338;8.794;2022-08-01T03:14:52;100252.78;;;20.99
63158;BMP280;49381;49.338;8.794;2022-08-01T03:16:54;100257.13;;;20.97
63158;BMP280;49381;49.338;8.794;2022-08-01T03:18:56;100248.00;;;20.89
63158;BMP280;49381;49.338;8.794;2022-08-01T03:20:57;100251.59;;;20.85
63158;BMP280;49381;49.338;8.794;2022-08-01T03:23:00;100259.38;;;20.83
63158;BMP280;49381;49.338;8.794;2022-08-01T03:25:03;100251.53;;;20.86
63158;BMP280;49381;49.338;8.794;2022-08-01T03:27:05;100261.16;;;20.81
63158;BMP280;49381;49.338;8.794;2022-08-01T03:29:06;100255.59;;;20.69
63158;BMP280;49381;49.338;8.794;2022-08-01T03:31:09;100258.75;;;20.53
63158;BMP280;49381;49.338;8.794;2022-08-01T03:33:10;100255.56;;;20.45
63158;BMP280;49381;49.338;8.794;2022-08-01T03:35:10;100249.56;;;20.20
63158;BMP280;49381;49.338;8.794;2022-08-01T03:37:16;100252.88;;;20.24
63158;BMP280;49381;49.338;8.794;2022-08-01T03:39:22;100258.44;;;20.36
63158;BMP280;49381;49.338;8.794;2022-08-01T03:41:27;100260.19;;;20.36
63158;BMP280;49381;49.338;8.794;2022-08-01T03:43:32;100263.75;;;20.32
63158;BMP280;49381;49.338;8.794;2022-08-01T03:45:35;100259.28;;;20.37
63158;BMP280;49381;49.338;8.794;2022-08-01T03:47:37;100261.03;;;20.36
63158;BMP280;49381;49.338;8.794;2022-08-01T03:49:41;100258.44;;;20.36
63158;BMP280;49381;49.338;8.794;2022-08-01T03:51:43;100258.50;;;20.35
63158;BMP280;49381;49.338;8.794;2022-08-01T03:53:45;100260.25;;;20.34
63158;BMP280;49381;49.338;8.794;2022-08-01T03:55:45;100254.41;;;20.29
63158;BMP280;49381;49.338;8.794;2022-08-01T03:57:48;100255.88;;;20.36
63158;BMP280;49381;49.338;8.794;2022-08-01T03:59:48;100264.09;;;20.21
63158;BMP280;49381;49.338;8.794;2022-08-01T04:01:49;100270.34;;;20.14
63158;BMP280;49381;49.338;8.794;2022-08-01T04:03:50;100265.84;;;20.21
63158;BMP280;49381;49.338;8.794;2022-08-01T04:05:51;100258.06;;;20.22
63158;BMP280;49381;49.338;8.794;2022-08-01T04:07:51;100264.03;;;20.23
63158;BMP280;49381;49.338;8.794;2022-08-01T04:09:52;100265.00;;;20.20
63158;BMP280;49381;49.338;8.794;2022-08-01T04:11:52;100258.88;;;20.24
63158;BMP280;49381;49.338;8.794;2022-08-01T04:13:55;100270.06;;;20.23
63158;BMP280;49381;49.338;8.794;2022-08-01T04:15:55;100263.13;;;20.25
63158;BMP280;49381;49.338;8.794;2022-08-01T04:17:55;100266.53;;;20.26
63158;BMP280;49381;49.338;8.794;2022-08-01T04:19:56;100263.22;;;20.22
63158;BMP280;49381;49.338;8.794;2022-08-01T04:21:56;100267.56;;;20.20
63158;BMP280;49381;49.338;8.794;2022-08-01T04:23:59;100269.09;;;20.26
63158;BMP280;49381;49.338;8.794;2022-08-01T04:26:02;100274.16;;;20.29
63158;BMP280;49381;49.338;8.794;2022-08-01T04:28:03;100283.72;;;20.25
63158;BMP280;49381;49.338;8.794;2022-08-01T04:30:09;100284.53;;;20.26
63158;BMP280;49381;49.338;8.794;2022-08-01T04:32:11;100289.75;;;20.24
63158;BMP280;49381;49.338;8.794;2022-08-01T04:34:14;100292.28;;;20.26
63158;BMP280;49381;49.338;8.794;2022-08-01T04:36:18;100292.22;;;20.27
63158;BMP280;49381;49.338;8.794;2022-08-01T04:38:22;100297.28;;;20.30
63158;BMP280;49381;49.338;8.794;2022-08-01T04:40:25;100295.59;;;20.29
63158;BMP280;49381;49.338;8.794;2022-08-01T04:42:26;100300.81;;;20.26
63158;BMP280;49381;49.338;8.794;2022-08-01T04:44:26;100301.66;;;20.27
63158;BMP280;49381;49.338;8.794;2022-08-01T04:46:28;100299.16;;;20.25
63158;BMP280;49381;49.338;8.794;2022-08-01T04:48:31;100298.88;;;20.33
63158;BMP280;49381;49.338;8.794;2022-08-01T04:50:32;100289.41;;;20.35
63158;BMP280;49381;49.338;8.794;2022-08-01T04:52:33;100297.00;;;20.38
63158;BMP280;49381;49.338;8.794;2022-08-01T04:54:34;100296.16;;;20.37
63158;BMP280;49381;49.338;8.794;2022-08-01T04:56:35;100294.41;;;20.39
63158;BMP280;49381;49.338;8.794;2022-08-01T04:58:35;100302.91;;;20.41
63158;BMP280;49381;49.338;8.794;2022-08-01T05:00:36;100307.34;;;20.36
63158;BMP280;49381;49.338;8.794;2022-08-01T05:02:37;100292.81;;;20.35
63158;BMP280;49381;49.338;8.794;2022-08-01T05:04:38;100305.47;;;20.41
63158;BMP280;49381;49.338;8.794;2022-08-01T05:06:39;100301.63;;;20.28
63158;BMP280;49381;49.338;8.794;2022-08-01T05:08:39;100312.38;;;20.15
63158;BMP280;49381;49.338;8.794;2022-08-01T05:10:39;100309.31;;;20.04
63158;BMP280;49381;49.338;8.794;2022-08-01T05:12:40;100317.75;;;20.08
63158;BMP280;49381;49.338;8.794;2022-08-01T05:14:40;100310.84;;;20.10
63158;BMP280;49381;49.338;8.794;2022-08-01T05:16:42;100312.50;;;20.11
63158;BMP280;49381;49.338;8.794;2022-08-01T05:18:44;100307.97;;;20.18
63158;BMP280;49381;49.338;8.794;2022-08-01T05:20:44;100312.31;;;20.16
63158;BMP280;49381;49.338;8.794;2022-08-01T05:22:45;100310.50;;;20.20
63158;BMP280;49381;49.338;8.794;2022-08-01T05:24:45;100313.97;;;20.17
63158;BMP280;49381;49.338;8.794;2022-08-01T05:26:45;100314.78;;;20.19
63158;BMP280;49381;49.338;8.794;2022-08-01T05:28:45;100320.84;;;20.18
63158;BMP280;49381;49.338;8.794;2022-08-01T05:30:48;100315.00;;;20.14
63158;BMP280;49381;49.338;8.794;2022-08-01T05:32:49;100319.09;;;20.19
63158;BMP280;49381;49.338;8.794;2022-08-01T05:34:50;100313.00;;;20.21
63158;BMP280;49381;49.338;8.794;2022-08-01T05:36:51;100311.31;;;20.20
63158;BMP280;49381;49.338;8.794;2022-08-01T05:38:51;100316.06;;;20.32
63158;BMP280;49381;49.338;8.794;2022-08-01T05:40:51;100322.72;;;20.39
63158;BMP280;49381;49.338;8.794;2022-08-01T05:42:52;100308.72;;;20.46
63158;BMP280;49381;49.338;8.794;2022-08-01T05:44:52;100308.72;;;20.46
63158;BMP280;49381;49.338;8.794;2022-08-01T05:46:53;100307.72;;;20.51
63158;BMP280;49381;49.338;8.794;2022-08-01T05:48:53;100314.38;;;20.58
63158;BMP280;49381;49.338;8.794;2022-08-01T05:50:55;100319.31;;;20.63
63158;BMP280;49381;49.338;8.794;2022-08-01T05:52:55;100314.84;;;20.69
63158;BMP280;49381;49.338;8.794;2022-08-01T05:54:55;100315.53;;;20.72
63158;BMP280;49381;49.338;8.794;2022-08-01T05:56:56;100311.75;;;20.82
63158;BMP280;49381;49.338;8.794;2022-08-01T05:58:56;100315.91;;;20.86
63158;BMP280;49381;49.338;8.794;2022-08-01T06:00:56;100313.47;;;20.83
63158;BMP280;49381;49.338;8.794;2022-08-01T06:02:57;100317.56;;;20.89
63158;BMP280;49381;49.338;8.794;2022-08-01T06:04:57;100322.56;;;20.93
63158;BMP280;49381;49.338;8.794;2022-08-01T06:06:59;100319.78;;;20.97
63158;BMP280;49381;49.338;8.794;2022-08-01T06:08:59;100324.59;;;21.08
63158;BMP280;49381;49.338;8.794;2022-08-01T06:10:59;100325.19;;;21.14
63158;BMP280;49381;49.338;8.794;2022-08-01T06:13:00;100320.38;;;21.29
63158;BMP280;49381;49.338;8.794;2022-08-01T06:15:00;100325.22;;;21.37
63158;BMP280;49381;49.338;8.794;2022-08-01T06:17:00;100333.22;;;21.52
63158;BMP280;49381;49.338;8.794;2022-08-01T06:19:00;100333.22;;;21.74
63158;BMP280;49381;49.338;8.794;2022-08-01T06:21:01;100328.53;;;21.84
63158;BMP280;49381;49.338;8.794;2022-08-01T06:23:03;100331.97;;;21.84
63158;BMP280;49381;49.338;8.794;2022-08-01T06:25:04;100331.91;;;21.86
63158;BMP280;49381;49.338;8.794;2022-08-01T06:27:05;100340.19;;;21.93
63158;BMP280;49381;49.338;8.794;2022-08-01T06:29:05;100330.44;;;22.01
63158;BMP280;49381;49.338;8.794;2022-08-01T06:31:05;100336.25;;;22.06
63158;BMP280;49381;49.338;8.794;2022-08-01T06:33:06;100334.31;;;22.11
63158;BMP280;49381;49.338;8.794;2022-08-01T06:35:07;100333.50;;;22.11
63158;BMP280;49381;49.338;8.794;2022-08-01T06:37:07;100335.72;;;22.19
63158;BMP280;49381;49.338;8.794;2022-08-01T06:39:09;100325.69;;;22.33
63158;BMP280;49381;49.338;8.794;2022-08-01T06:41:09;100324.53;;;22.60
63158;BMP280;49381;49.338;8.794;2022-08-01T06:43:09;100323.81;;;22.77
63158;BMP280;49381;49.338;8.794;2022-08-01T06:45:11;100322.03;;;22.97
63158;BMP280;49381;49.338;8.794;2022-08-01T06:47:11;100326.09;;;23.21
63158;BMP280;49381;49.338;8.794;2022-08-01T06:49:12;100324.53;;;23.37
63158;BMP280;49381;49.338;8.794;2022-08-01T06:51:12;100324.34;;;23.59
63158;BMP280;49381;49.338;8.794;2022-08-01T06:53:12;100330.84;;;23.86
63158;BMP280;49381;49.338;8.794;2022-08-01T06:55:15;100325.19;;;23.96
63158;BMP280;49381;49.338;8.794;2022-08-01T06:57:15;100318.91;;;24.00
63158;BMP280;49381;49.338;8.794;2022-08-01T06:59:16;100320.16;;;24.10
63158;BMP280;49381;49.338;8.794;2022-08-01T07:01:16;100325.06;;;24.16
63158;BMP280;49381;49.338;8.794;2022-08-01T07:03:17;100326.47;;;24.22
63158;BMP280;49381;49.338;8.794;2022-08-01T07:05:17;100332.88;;;24.32
63158;BMP280;49381;49.338;8.794;2022-08-01T07:07:17;100334.41;;;24.36
63158;BMP280;49381;49.338;8.794;2022-08-01T07:09:18;100330.28;;;24.49
63158;BMP280;49381;49.338;8.794;2022-08-01T07:11:20;100328.47;;;24.68
63158;BMP280;49381;49.338;8.794;2022-08-01T07:13:21;100328.31;;;24.71
63158;BMP280;49381;49.338;8.794;2022-08-01T07:15:21;100326.94;;;24.97
63158;BMP280;49381;49.338;8.794;2022-08-01T07:17:22;100327.69;;;25.16
63158;BMP280;49381;49.338;8.794;2022-08-01T07:19:22;100332.28;;;24.94
63158;BMP280;49381;49.338;8.794;2022-08-01T07:21:22;100326.16;;;25.12
63158;BMP280;49381;49.338;8.794;2022-08-01T07:23:23;100331.56;;;25.07
63158;BMP280;49381;49.338;8.794;2022-08-01T07:25:23;100330.50;;;25.11
63158;BMP280;49381;49.338;8.794;2022-08-01T07:27:25;100327.13;;;25.09
63158;BMP280;49381;49.338;8.794;2022-08-01T07:29:26;100325.69;;;25.04
63158;BMP280;49381;49.338;8.794;2022-08-01T07:31:26;100328.69;;;25.28
63158;BMP280;49381;49.338;8.794;2022-08-01T07:33:27;100324.47;;;25.43
63158;BMP280;49381;49.338;8.794;2022-08-01T07:35:27;100326.50;;;25.68
63158;BMP280;49381;49.338;8.794;2022-08-01T07:37:27;100325.75;;;25.81
63158;BMP280;49381;49.338;8.794;2022-08-01T07:39:28;100318.66;;;26.00
63158;BMP280;49381;49.338;8.794;2022-08-01T07:41:28;100314.88;;;26.21
63158;BMP280;49381;49.338;8.794;2022-08-01T07:43:30;100312.88;;;26.39
63158;BMP280;49381;49.338;8.794;2022-08-01T07:45:30;100309.38;;;26.54
63158;BMP280;49381;49.338;8.794;2022-08-01T07:47:30;100302.53;;;26.53
63158;BMP280;49381;49.338;8.794;2022-08-01T07:49:31;100307.44;;;26.73
63158;BMP280;49381;49.338;8.794;2022-08-01T07:51:31;100303.56;;;26.79
63158;BMP280;49381;49.338;8.794;2022-08-01T07:53:31;100307.06;;;26.65
63158;BMP280;49381;49.338;8.794;2022-08-01T07:55:31;100288.53;;;26.84
63158;BMP280;49381;49.338;8.794;2022-08-01T07:57:32;100298.56;;;26.90
63158;BMP280;49381;49.338;8.794;2022-08-01T07:59:34;100299.25;;;26.65
63158;BMP280;49381;49.338;8.794;2022-08-01T08:01:34;100296.88;;;27.03
63158;BMP280;49381;49.338;8.794;2022-08-01T08:03:34;100295.69;;;26.95
63158;BMP280;49381;49.338;8.794;2022-08-01T08:05:35;100299.28;;;26.92
63158;BMP280;49381;49.338;8.794;2022-08-01T08:07:36;100290.75;;;27.18
63158;BMP280;49381;49.338;8.794;2022-08-01T08:09:36;100294.66;;;27.38
63158;BMP280;49381;49.338;8.794;2022-08-01T08:11:36;100284.22;;;27.52
63158;BMP280;49381;49.338;8.794;2022-08-01T08:13:37;100289.75;;;27.74
63158;BMP280;49381;49.338;8.794;2022-08-01T08:15:38;100303.31;;;27.78
63158;BMP280;49381;49.338;8.794;2022-08-01T08:17:39;100294.00;;;27.21
63158;BMP280;49381;49.338;8.794;2022-08-01T08:19:39;100298.56;;;27.31
63158;BMP280;49381;49.338;8.794;2022-08-01T08:21:40;100300.34;;;27.31
63158;BMP280;49381;49.338;8.794;2022-08-01T08:23:40;100292.19;;;27.63
63158;BMP280;49381;49.338;8.794;2022-08-01T08:25:41;100302.09;;;27.44
63158;BMP280;49381;49.338;8.794;2022-08-01T08:27:41;100287.22;;;27.46
63158;BMP280;49381;49.338;8.794;2022-08-01T08:29:41;100300.38;;;26.88
63158;BMP280;49381;49.338;8.794;2022-08-01T08:31:43;100292.13;;;27.51
63158;BMP280;49381;49.338;8.794;2022-08-01T08:33:43;100288.50;;;27.93
63158;BMP280;49381;49.338;8.794;2022-08-01T08:35:43;100285.28;;;27.89
63158;BMP280;49381;49.338;8.794;2022-08-01T08:37:44;100284.97;;;28.20
63158;BMP280;49381;49.338;8.794;2022-08-01T08:39:44;100274.63;;;28.44
63158;BMP280;49381;49.338;8.794;2022-08-01T08:41:45;100285.81;;;28.58
63158;BMP280;49381;49.338;8.794;2022-08-01T08:43:45;100286.00;;;28.68
63158;BMP280;49381;49.338;8.794;2022-08-01T08:45:45;100275.44;;;28.06
63158;BMP280;49381;49.338;8.794;2022-08-01T08:47:48;100279.53;;;28.23
63158;BMP280;49381;49.338;8.794;2022-08-01T08:49:53;100282.03;;;28.50
63158;BMP280;49381;49.338;8.794;2022-08-01T08:51:58;100283.13;;;27.96
63158;BMP280;49381;49.338;8.794;2022-08-01T08:54:00;100284.25;;;27.92
63158;BMP280;49381;49.338;8.794;2022-08-01T08:56:00;100272.72;;;28.34
63158;BMP280;49381;49.338;8.794;2022-08-01T08:58:01;100276.69;;;28.39
63158;BMP280;49381;49.338;8.794;2022-08-01T09:00:03;100276.63;;;28.15
63158;BMP280;49381;49.338;8.794;2022-08-01T09:02:04;100277.75;;;28.11
63158;BMP280;49381;49.338;8.794;2022-08-01T09:04:05;100266.41;;;28.50
63158;BMP280;49381;49.338;8.794;2022-08-01T09:06:06;100272.38;;;28.64
63158;BMP280;49381;49.338;8.794;2022-08-01T09:08:07;100271.94;;;28.70
63158;BMP280;49381;49.338;8.794;2022-08-01T09:10:08;100270.88;;;28.73
63158;BMP280;49381;49.338;8.794;2022-08-01T09:12:08;100281.34;;;28.85
63158;BMP280;49381;49.338;8.794;2022-08-01T09:14:10;100282.41;;;29.07
63158;BMP280;49381;49.338;8.794;2022-08-01T09:16:15;100286.91;;;29.05
63158;BMP280;49381;49.338;8.794;2022-08-01T09:18:26;100289.25;;;29.32
63158;BMP280;49381;49.338;8.794;2022-08-01T09:20:29;100289.75;;;29.37
63158;BMP280;49381;49.338;8.794;2022-08-01T09:22:33;100287.72;;;29.05
63158;BMP280;49381;49.338;8.794;2022-08-01T09:24:33;100288.84;;;28.65
63158;BMP280;49381;49.338;8.794;2022-08-01T09:26:35;100291.75;;;28.73
63158;BMP280;49381;49.338;8.794;2022-08-01T09:28:36;100285.50;;;28.25
63158;BMP280;49381;49.338;8.794;2022-08-01T09:30:37;100296.78;;;27.99
63158;BMP280;49381;49.338;8.794;2022-08-01T09:32:53;100281.25;;;28.24
63158;BMP280;49381;49.338;8.794;2022-08-01T09:34:53;100284.56;;;28.64
63158;BMP280;49381;49.338;8.794;2022-08-01T09:36:56;100296.47;;;28.92
63158;BMP280;49381;49.338;8.794;2022-08-01T09:39:11;100283.13;;;28.97
63158;BMP280;49381;49.338;8.794;2022-08-01T09:41:12;100280.53;;;29.09
63158;BMP280;49381;49.338;8.794;2022-08-01T09:43:13;100281.84;;;29.39
63158;BMP280;49381;49.338;8.794;2022-08-01T09:45:31;100281.81;;;29.51
63158;BMP280;49381;49.338;8.794;2022-08-01T09:47:37;100280.13;;;29.50
63158;BMP280;49381;49.338;8.794;2022-08-01T09:49:39;100274.09;;;29.50
63158;BMP280;49381;49.338;8.794;2022-08-01T09:51:39;100280.75;;;29.66
63158;BMP280;49381;49.338;8.794;2022-08-01T09:53:45;100280.88;;;29.87
63158;BMP280;49381;49.338;8.794;2022-08-01T09:55:45;100284.47;;;29.97
63158;BMP280;49381;49.338;8.794;2022-08-01T09:57:54;100273.84;;;29.65
63158;BMP280;49381;49.338;8.794;2022-08-01T09:59:59;100281.69;;;29.65
63158;BMP280;49381;49.338;8.794;2022-08-01T10:02:00;100274.41;;;29.80
63158;BMP280;49381;49.338;8.794;2022-08-01T10:04:05;100284.38;;;29.16
63158;BMP280;49381;49.338;8.794;2022-08-01T10:06:18;100278.94;;;28.94
63158;BMP280;49381;49.338;8.794;2022-08-01T10:08:19;100268.94;;;28.88
63158;BMP280;49381;49.338;8.794;2022-08-01T10:10:21;100269.13;;;28.85
63158;BMP280;49381;49.338;8.794;2022-08-01T10:12:22;100265.50;;;29.00
63158;BMP280;49381;49.338;8.794;2022-08-01T10:14:24;100271.44;;;28.27
63158;BMP280;49381;49.338;8.794;2022-08-01T10:16:26;100265.91;;;28.70
63158;BMP280;49381;49.338;8.794;2022-08-01T10:18:28;100272.16;;;28.55
63158;BMP280;49381;49.338;8.794;2022-08-01T10:20:35;100271.84;;;28.72
63158;BMP280;49381;49.338;8.794;2022-08-01T10:22:36;100272.34;;;28.52
63158;BMP280;49381;49.338;8.794;2022-08-01T10:24:38;100272.25;;;28.66
63158;BMP280;49381;49.338;8.794;2022-08-01T10:26:41;100270.47;;;28.66
63158;BMP280;49381;49.338;8.794;2022-08-01T10:28:44;100278.53;;;28.25
63158;BMP280;49381;49.338;8.794;2022-08-01T10:30:48;100270.47;;;28.54
63158;BMP280;49381;49.338;8.794;2022-08-01T10:32:50;100272.56;;;28.49
63158;BMP280;49381;49.338;8.794;2022-08-01T10:34:50;100267.47;;;28.22
63158;BMP280;49381;49.338;8.794;2022-08-01T10:36:54;100271.53;;;28.26
63158;BMP280;49381;49.338;8.794;2022-08-01T10:38:55;100275.81;;;28.27
63158;BMP280;49381;49.338;8.794;2022-08-01T10:40:56;100271.34;;;28.28
63158;BMP280;49381;49.338;8.794;2022-08-01T10:42:58;100275.06;;;28.51
63158;BMP280;49381;49.338;8.794;2022-08-01T10:44:59;100274.03;;;28.65
63158;BMP280;49381;49.338;8.794;2022-08-01T10:47:03;100267.97;;;28.77
63158;BMP280;49381;49.338;8.794;2022-08-01T10:49:07;100269.66;;;28.90
63158;BMP280;49381;49.338;8.794;2022-08-01T10:51:13;100262.97;;;28.86
63158;BMP280;49381;49.338;8.794;2022-08-01T10:53:16;100275.50;;;28.94
63158;BMP280;49381;49.338;8.794;2022-08-01T10:55:17;100273.03;;;29.04
63158;BMP280;49381;49.338;8.794;2022-08-01T10:57:17;100267.38;;;29.10
63158;BMP280;49381;49.338;8.794;2022-08-01T10:59:28;100271.41;;;28.53
63158;BMP280;49381;49.338;8.794;2022-08-01T11:01:29;100260.69;;;28.70
63158;BMP280;49381;49.338;8.794;2022-08-01T11:03:34;100267.66;;;28.57
63158;BMP280;49381;49.338;8.794;2022-08-01T11:05:35;100266.31;;;28.76
63158;BMP280;49381;49.338;8.794;2022-08-01T11:07:43;100261.09;;;28.52
63158;BMP280;49381;49.338;8.794;2022-08-01T11:10:00;100255.66;;;28.67
63158;BMP280;49381;49.338;8.794;2022-08-01T11:12:19;100259.84;;;28.81
63158;BMP280;49381;49.338;8.794;2022-08-01T11:14:22;100258.63;;;28.24
63158;BMP280;49381;49.338;8.794;2022-08-01T11:16:35;100260.88;;;28.67
63158;BMP280;49381;49.338;8.794;2022-08-01T11:18:50;100251.06;;;28.82
63158;BMP280;49381;49.338;8.794;2022-08-01T11:20:55;100246.91;;;28.92
63158;BMP280;49381;49.338;8.794;2022-08-01T11:23:30;100257.56;;;29.02
63158;BMP280;49381;49.338;8.794;2022-08-01T11:26:09;100266.94;;;28.55
63158;BMP280;49381;49.338;8.794;2022-08-01T11:28:20;100249.41;;;28.57
63158;BMP280;49381;49.338;8.794;2022-08-01T11:30:26;100258.84;;;27.95
63158;BMP280;49381;49.338;8.794;2022-08-01T11:32:29;100250.72;;;28.00
63158;BMP280;49381;49.338;8.794;2022-08-01T11:34:58;100256.69;;;27.62
63158;BMP280;49381;49.338;8.794;2022-08-01T11:37:23;100256.34;;;27.54